Terminal Aerodrome Forecast
Issued by NWS Chicago, IL

Home | Current Version | Previous Version | Graphics & Text | Print | Product List | Glossary On
Versions: 1 2 3 4 5 6 7 8 9 10 11 12 13 14 15 16 17 18
986
FTUS43 KLOT 231733
TAFRFD
TAF
KRFD 231733Z 2318/2418 17006KT P6SM SCT050
     FM240200 13003KT P6SM SKC
     FM241500 16006KT P6SM FEW045=

USA.gov is the U.S. government's official web portal to all federal, state and local government web resources and services.